sensor_id;sensor_type;location;lat;lon;timestamp;P1;durP1;ratioP1;P2;durP2;ratioP2
24409;SDS011;12543;53.364;-1.504;2022-11-15T00:00:14;1.65;;;1.55;;
24409;SDS011;12543;53.364;-1.504;2022-11-15T00:03:00;2.85;;;1.63;;
24409;SDS011;12543;53.364;-1.504;2022-11-15T00:05:46;2.47;;;1.65;;
24409;SDS011;12543;53.364;-1.504;2022-11-15T00:08:31;2.33;;;1.55;;
24409;SDS011;12543;53.364;-1.504;2022-11-15T00:11:17;4.88;;;1.52;;
24409;SDS011;12543;53.364;-1.504;2022-11-15T00:14:03;2.78;;;1.40;;
24409;SDS011;12543;53.364;-1.504;2022-11-15T00:16:49;2.45;;;1.05;;
24409;SDS011;12543;53.364;-1.504;2022-11-15T00:19:35;4.63;;;1.63;;
24409;SDS011;12543;53.364;-1.504;2022-11-15T00:22:20;2.90;;;1.60;;
24409;SDS011;12543;53.364;-1.504;2022-11-15T00:25:06;2.97;;;1.50;;
24409;SDS011;12543;53.364;-1.504;2022-11-15T00:27:54;2.13;;;1.40;;
24409;SDS011;12543;53.364;-1.504;2022-11-15T00:30:41;4.28;;;1.30;;
24409;SDS011;12543;53.364;-1.504;2022-11-15T00:33:27;3.42;;;1.55;;
24409;SDS011;12543;53.364;-1.504;2022-11-15T00:36:13;3.25;;;1.30;;
24409;SDS011;12543;53.364;-1.504;2022-11-15T00:38:59;2.50;;;1.20;;
24409;SDS011;12543;53.364;-1.504;2022-11-15T00:41:45;2.67;;;1.23;;
24409;SDS011;12543;53.364;-1.504;2022-11-15T00:44:31;3.13;;;1.10;;
24409;SDS011;12543;53.364;-1.504;2022-11-15T00:47:16;2.47;;;0.90;;
24409;SDS011;12543;53.364;-1.504;2022-11-15T00:50:02;1.83;;;1.00;;
24409;SDS011;12543;53.364;-1.504;2022-11-15T00:52:48;4.00;;;1.17;;
24409;SDS011;12543;53.364;-1.504;2022-11-15T00:55:33;3.00;;;1.45;;
24409;SDS011;12543;53.364;-1.504;2022-11-15T00:58:19;5.30;;;1.98;;
24409;SDS011;12543;53.364;-1.504;2022-11-15T01:01:09;3.53;;;2.00;;
24409;SDS011;12543;53.364;-1.504;2022-11-15T01:03:57;4.18;;;2.10;;
24409;SDS011;12543;53.364;-1.504;2022-11-15T01:06:45;4.43;;;2.00;;
24409;SDS011;12543;53.364;-1.504;2022-11-15T01:09:31;2.60;;;1.90;;
24409;SDS011;12543;53.364;-1.504;2022-11-15T01:12:16;3.88;;;2.30;;
24409;SDS011;12543;53.364;-1.504;2022-11-15T01:15:02;4.65;;;2.42;;
24409;SDS011;12543;53.364;-1.504;2022-11-15T01:17:49;3.58;;;2.08;;
24409;SDS011;12543;53.364;-1.504;2022-11-15T01:20:38;2.75;;;1.90;;
24409;SDS011;12543;53.364;-1.504;2022-11-15T01:23:25;4.65;;;2.45;;
24409;SDS011;12543;53.364;-1.504;2022-11-15T01:26:12;4.72;;;2.20;;
24409;SDS011;12543;53.364;-1.504;2022-11-15T01:28:58;3.77;;;2.60;;
24409;SDS011;12543;53.364;-1.504;2022-11-15T01:31:44;4.22;;;2.80;;
24409;SDS011;12543;53.364;-1.504;2022-11-15T01:34:29;4.22;;;2.08;;
24409;SDS011;12543;53.364;-1.504;2022-11-15T01:37:15;3.25;;;2.17;;
24409;SDS011;12543;53.364;-1.504;2022-11-15T01:40:00;3.38;;;1.85;;
24409;SDS011;12543;53.364;-1.504;2022-11-15T01:42:46;3.50;;;1.80;;
24409;SDS011;12543;53.364;-1.504;2022-11-15T01:45:32;3.15;;;1.63;;
24409;SDS011;12543;53.364;-1.504;2022-11-15T01:48:17;2.63;;;1.23;;
24409;SDS011;12543;53.364;-1.504;2022-11-15T01:51:04;3.20;;;1.27;;
24409;SDS011;12543;53.364;-1.504;2022-11-15T01:53:54;3.10;;;1.63;;
24409;SDS011;12543;53.364;-1.504;2022-11-15T01:56:50;3.33;;;1.50;;
24409;SDS011;12543;53.364;-1.504;2022-11-15T01:59:42;3.72;;;1.40;;
24409;SDS011;12543;53.364;-1.504;2022-11-15T02:02:30;2.95;;;1.35;;
24409;SDS011;12543;53.364;-1.504;2022-11-15T02:05:16;3.65;;;1.55;;
24409;SDS011;12543;53.364;-1.504;2022-11-15T02:08:01;3.47;;;1.50;;
24409;SDS011;12543;53.364;-1.504;2022-11-15T02:10:47;5.78;;;2.03;;
24409;SDS011;12543;53.364;-1.504;2022-11-15T02:13:32;4.43;;;2.10;;
24409;SDS011;12543;53.364;-1.504;2022-11-15T02:16:31;6.53;;;2.10;;
24409;SDS011;12543;53.364;-1.504;2022-11-15T02:26:04;3.70;;;2.03;;
24409;SDS011;12543;53.364;-1.504;2022-11-15T02:29:05;5.97;;;2.20;;
24409;SDS011;12543;53.364;-1.504;2022-11-15T02:31:59;4.43;;;1.55;;
24409;SDS011;12543;53.364;-1.504;2022-11-15T02:34:54;3.53;;;1.70;;
24409;SDS011;12543;53.364;-1.504;2022-11-15T02:37:58;3.28;;;1.63;;
24409;SDS011;12543;53.364;-1.504;2022-11-15T02:43:53;2.97;;;1.52;;
24409;SDS011;12543;53.364;-1.504;2022-11-15T02:46:48;4.13;;;1.40;;
24409;SDS011;12543;53.364;-1.504;2022-11-15T02:50:00;2.17;;;1.27;;
24409;SDS011;12543;53.364;-1.504;2022-11-15T02:52:51;1.58;;;0.98;;
24409;SDS011;12543;53.364;-1.504;2022-11-15T02:55:38;2.80;;;1.00;;
24409;SDS011;12543;53.364;-1.504;2022-11-15T02:58:47;1.27;;;0.85;;
24409;SDS011;12543;53.364;-1.504;2022-11-15T03:07:59;2.97;;;1.05;;
24409;SDS011;12543;53.364;-1.504;2022-11-15T03:13:57;1.27;;;0.73;;
24409;SDS011;12543;53.364;-1.504;2022-11-15T03:19:54;4.35;;;1.10;;
24409;SDS011;12543;53.364;-1.504;2022-11-15T03:22:43;3.13;;;0.90;;
24409;SDS011;12543;53.364;-1.504;2022-11-15T03:28:20;3.95;;;0.93;;
24409;SDS011;12543;53.364;-1.504;2022-11-15T03:31:10;4.00;;;1.48;;
24409;SDS011;12543;53.364;-1.504;2022-11-15T03:37:13;2.83;;;0.95;;
24409;SDS011;12543;53.364;-1.504;2022-11-15T03:40:00;2.47;;;1.10;;
24409;SDS011;12543;53.364;-1.504;2022-11-15T03:43:15;3.30;;;0.90;;
24409;SDS011;12543;53.364;-1.504;2022-11-15T03:46:36;5.03;;;1.20;;
24409;SDS011;12543;53.364;-1.504;2022-11-15T03:49:29;4.25;;;1.35;;
24409;SDS011;12543;53.364;-1.504;2022-11-15T03:52:19;2.00;;;1.15;;
24409;SDS011;12543;53.364;-1.504;2022-11-15T03:55:07;3.22;;;1.25;;
24409;SDS011;12543;53.364;-1.504;2022-11-15T03:57:56;3.78;;;1.00;;
24409;SDS011;12543;53.364;-1.504;2022-11-15T04:00:44;3.33;;;1.10;;
24409;SDS011;12543;53.364;-1.504;2022-11-15T04:03:30;3.92;;;1.00;;
24409;SDS011;12543;53.364;-1.504;2022-11-15T04:06:16;2.25;;;1.00;;
24409;SDS011;12543;53.364;-1.504;2022-11-15T04:09:01;5.10;;;1.05;;
24409;SDS011;12543;53.364;-1.504;2022-11-15T04:11:47;4.75;;;1.42;;
24409;SDS011;12543;53.364;-1.504;2022-11-15T04:14:33;3.97;;;1.30;;
24409;SDS011;12543;53.364;-1.504;2022-11-15T04:17:18;5.18;;;1.20;;
24409;SDS011;12543;53.364;-1.504;2022-11-15T04:20:05;4.43;;;1.08;;
24409;SDS011;12543;53.364;-1.504;2022-11-15T04:23:12;4.43;;;1.13;;
24409;SDS011;12543;53.364;-1.504;2022-11-15T04:26:21;2.90;;;0.98;;
24409;SDS011;12543;53.364;-1.504;2022-11-15T04:29:07;4.97;;;1.27;;
24409;SDS011;12543;53.364;-1.504;2022-11-15T04:32:11;3.53;;;1.10;;
24409;SDS011;12543;53.364;-1.504;2022-11-15T04:34:56;3.33;;;1.40;;
24409;SDS011;12543;53.364;-1.504;2022-11-15T04:37:42;3.15;;;1.10;;
24409;SDS011;12543;53.364;-1.504;2022-11-15T04:40:33;7.55;;;1.90;;
24409;SDS011;12543;53.364;-1.504;2022-11-15T04:43:19;5.80;;;1.25;;
24409;SDS011;12543;53.364;-1.504;2022-11-15T04:46:04;3.55;;;1.20;;
24409;SDS011;12543;53.364;-1.504;2022-11-15T04:48:50;4.88;;;1.23;;
24409;SDS011;12543;53.364;-1.504;2022-11-15T04:51:42;4.82;;;1.20;;
24409;SDS011;12543;53.364;-1.504;2022-11-15T04:54:28;3.58;;;0.95;;
24409;SDS011;12543;53.364;-1.504;2022-11-15T04:57:14;5.93;;;1.95;;
24409;SDS011;12543;53.364;-1.504;2022-11-15T04:59:59;2.33;;;1.00;;
24409;SDS011;12543;53.364;-1.504;2022-11-15T05:02:44;2.67;;;1.10;;
24409;SDS011;12543;53.364;-1.504;2022-11-15T05:05:48;5.10;;;1.50;;
24409;SDS011;12543;53.364;-1.504;2022-11-15T05:08:34;6.35;;;1.40;;
24409;SDS011;12543;53.364;-1.504;2022-11-15T05:11:19;3.38;;;1.10;;
24409;SDS011;12543;53.364;-1.504;2022-11-15T05:14:05;3.55;;;1.08;;
24409;SDS011;12543;53.364;-1.504;2022-11-15T05:16:51;3.50;;;1.30;;
24409;SDS011;12543;53.364;-1.504;2022-11-15T05:19:36;3.78;;;1.20;;
24409;SDS011;12543;53.364;-1.504;2022-11-15T05:22:23;7.95;;;1.63;;
24409;SDS011;12543;53.364;-1.504;2022-11-15T05:25:08;3.63;;;1.10;;
24409;SDS011;12543;53.364;-1.504;2022-11-15T05:27:54;2.47;;;1.10;;
24409;SDS011;12543;53.364;-1.504;2022-11-15T05:30:39;2.53;;;1.02;;
24409;SDS011;12543;53.364;-1.504;2022-11-15T05:33:25;3.95;;;1.40;;
24409;SDS011;12543;53.364;-1.504;2022-11-15T05:39:11;3.42;;;1.02;;
24409;SDS011;12543;53.364;-1.504;2022-11-15T05:41:59;3.60;;;1.10;;
24409;SDS011;12543;53.364;-1.504;2022-11-15T05:45:05;3.47;;;1.20;;
24409;SDS011;12543;53.364;-1.504;2022-11-15T05:50:42;3.13;;;1.02;;
24409;SDS011;12543;53.364;-1.504;2022-11-15T05:53:31;2.25;;;0.90;;
24409;SDS011;12543;53.364;-1.504;2022-11-15T05:56:18;2.50;;;1.00;;
24409;SDS011;12543;53.364;-1.504;2022-11-15T05:59:03;2.40;;;0.88;;
24409;SDS011;12543;53.364;-1.504;2022-11-15T06:01:49;1.95;;;0.88;;
24409;SDS011;12543;53.364;-1.504;2022-11-15T06:04:35;5.03;;;1.33;;
24409;SDS011;12543;53.364;-1.504;2022-11-15T06:07:21;1.90;;;0.80;;
24409;SDS011;12543;53.364;-1.504;2022-11-15T06:10:07;3.72;;;0.98;;
24409;SDS011;12543;53.364;-1.504;2022-11-15T06:12:59;5.45;;;1.00;;
24409;SDS011;12543;53.364;-1.504;2022-11-15T06:15:49;2.30;;;0.95;;
24409;SDS011;12543;53.364;-1.504;2022-11-15T06:18:34;5.05;;;1.10;;
24409;SDS011;12543;53.364;-1.504;2022-11-15T06:21:20;1.92;;;0.90;;
24409;SDS011;12543;53.364;-1.504;2022-11-15T06:24:06;2.80;;;1.25;;
24409;SDS011;12543;53.364;-1.504;2022-11-15T06:26:52;3.03;;;0.80;;
24409;SDS011;12543;53.364;-1.504;2022-11-15T06:29:37;2.55;;;1.08;;
24409;SDS011;12543;53.364;-1.504;2022-11-15T06:32:23;2.88;;;0.90;;
24409;SDS011;12543;53.364;-1.504;2022-11-15T06:35:08;3.65;;;0.93;;
24409;SDS011;12543;53.364;-1.504;2022-11-15T06:37:54;3.53;;;0.88;;
24409;SDS011;12543;53.364;-1.504;2022-11-15T06:40:40;2.90;;;0.90;;
24409;SDS011;12543;53.364;-1.504;2022-11-15T06:43:25;4.10;;;1.10;;
24409;SDS011;12543;53.364;-1.504;2022-11-15T06:46:11;2.15;;;1.10;;
24409;SDS011;12543;53.364;-1.504;2022-11-15T06:48:56;1.52;;;0.77;;
24409;SDS011;12543;53.364;-1.504;2022-11-15T06:51:42;1.30;;;0.90;;
24409;SDS011;12543;53.364;-1.504;2022-11-15T06:54:27;3.15;;;1.00;;
24409;SDS011;12543;53.364;-1.504;2022-11-15T06:57:13;2.63;;;0.93;;
24409;SDS011;12543;53.364;-1.504;2022-11-15T06:59:59;2.15;;;1.02;;
24409;SDS011;12543;53.364;-1.504;2022-11-15T07:02:45;2.15;;;1.50;;
24409;SDS011;12543;53.364;-1.504;2022-11-15T07:05:31;3.60;;;1.15;;
24409;SDS011;12543;53.364;-1.504;2022-11-15T07:08:16;2.22;;;1.15;;
24409;SDS011;12543;53.364;-1.504;2022-11-15T07:11:03;1.95;;;0.80;;
24409;SDS011;12543;53.364;-1.504;2022-11-15T07:13:52;2.45;;;1.10;;
24409;SDS011;12543;53.364;-1.504;2022-11-15T07:16:37;1.00;;;0.75;;
24409;SDS011;12543;53.364;-1.504;2022-11-15T07:19:22;1.70;;;0.80;;
24409;SDS011;12543;53.364;-1.504;2022-11-15T07:22:08;1.75;;;1.00;;
24409;SDS011;12543;53.364;-1.504;2022-11-15T07:24:54;1.88;;;1.10;;
24409;SDS011;12543;53.364;-1.504;2022-11-15T07:27:40;2.30;;;1.20;;
24409;SDS011;12543;53.364;-1.504;2022-11-15T07:30:25;2.55;;;1.10;;
24409;SDS011;12543;53.364;-1.504;2022-11-15T07:33:12;3.58;;;1.13;;
24409;SDS011;12543;53.364;-1.504;2022-11-15T07:35:58;2.05;;;0.90;;
24409;SDS011;12543;53.364;-1.504;2022-11-15T07:38:46;3.50;;;1.33;;
24409;SDS011;12543;53.364;-1.504;2022-11-15T07:41:32;2.55;;;1.33;;
24409;SDS011;12543;53.364;-1.504;2022-11-15T07:44:17;6.18;;;1.10;;
24409;SDS011;12543;53.364;-1.504;2022-11-15T07:47:03;2.40;;;1.10;;
24409;SDS011;12543;53.364;-1.504;2022-11-15T07:49:48;2.60;;;1.33;;
24409;SDS011;12543;53.364;-1.504;2022-11-15T07:52:34;4.30;;;1.40;;
24409;SDS011;12543;53.364;-1.504;2022-11-15T07:55:20;2.63;;;1.15;;
24409;SDS011;12543;53.364;-1.504;2022-11-15T07:58:07;2.78;;;0.90;;
24409;SDS011;12543;53.364;-1.504;2022-11-15T08:00:54;2.35;;;0.95;;
24409;SDS011;12543;53.364;-1.504;2022-11-15T08:03:39;1.50;;;0.80;;
24409;SDS011;12543;53.364;-1.504;2022-11-15T08:06:25;1.75;;;1.30;;
24409;SDS011;12543;53.364;-1.504;2022-11-15T08:09:10;2.85;;;1.15;;
24409;SDS011;12543;53.364;-1.504;2022-11-15T08:11:56;2.08;;;1.08;;
24409;SDS011;12543;53.364;-1.504;2022-11-15T08:14:41;1.45;;;1.00;;
24409;SDS011;12543;53.364;-1.504;2022-11-15T08:17:27;1.92;;;1.08;;
24409;SDS011;12543;53.364;-1.504;2022-11-15T08:20:16;1.75;;;1.00;;
24409;SDS011;12543;53.364;-1.504;2022-11-15T08:23:02;3.50;;;1.30;;
24409;SDS011;12543;53.364;-1.504;2022-11-15T08:25:48;2.08;;;1.27;;
24409;SDS011;12543;53.364;-1.504;2022-11-15T08:28:34;1.83;;;1.20;;
24409;SDS011;12543;53.364;-1.504;2022-11-15T08:31:20;2.60;;;1.52;;
24409;SDS011;12543;53.364;-1.504;2022-11-15T08:34:05;2.08;;;1.00;;
24409;SDS011;12543;53.364;-1.504;2022-11-15T08:36:51;1.63;;;1.23;;
24409;SDS011;12543;53.364;-1.504;2022-11-15T08:39:36;3.28;;;1.50;;
24409;SDS011;12543;53.364;-1.504;2022-11-15T08:42:22;3.20;;;1.63;;
24409;SDS011;12543;53.364;-1.504;2022-11-15T08:45:08;5.63;;;1.42;;
24409;SDS011;12543;53.364;-1.504;2022-11-15T08:47:55;2.17;;;1.42;;
24409;SDS011;12543;53.364;-1.504;2022-11-15T08:50:40;2.45;;;1.55;;
24409;SDS011;12543;53.364;-1.504;2022-11-15T08:53:28;2.67;;;1.52;;
24409;SDS011;12543;53.364;-1.504;2022-11-15T08:56:14;2.97;;;1.33;;
24409;SDS011;12543;53.364;-1.504;2022-11-15T08:59:00;3.85;;;1.80;;
24409;SDS011;12543;53.364;-1.504;2022-11-15T09:01:45;5.13;;;1.38;;
24409;SDS011;12543;53.364;-1.504;2022-11-15T09:04:31;2.45;;;1.08;;
24409;SDS011;12543;53.364;-1.504;2022-11-15T09:07:17;1.65;;;1.40;;
24409;SDS011;12543;53.364;-1.504;2022-11-15T09:10:03;2.95;;;1.33;;
24409;SDS011;12543;53.364;-1.504;2022-11-15T09:12:49;2.05;;;1.30;;
24409;SDS011;12543;53.364;-1.504;2022-11-15T09:15:35;1.58;;;1.45;;
24409;SDS011;12543;53.364;-1.504;2022-11-15T09:18:21;2.25;;;1.25;;
24409;SDS011;12543;53.364;-1.504;2022-11-15T09:21:07;1.55;;;1.10;;
24409;SDS011;12543;53.364;-1.504;2022-11-15T09:23:53;1.50;;;1.10;;
24409;SDS011;12543;53.364;-1.504;2022-11-15T09:26:39;3.05;;;1.10;;
24409;SDS011;12543;53.364;-1.504;2022-11-15T09:29:25;1.60;;;1.17;;
24409;SDS011;12543;53.364;-1.504;2022-11-15T09:32:11;1.70;;;0.95;;
24409;SDS011;12543;53.364;-1.504;2022-11-15T09:34:56;1.33;;;0.88;;
24409;SDS011;12543;53.364;-1.504;2022-11-15T09:37:42;2.25;;;1.00;;
24409;SDS011;12543;53.364;-1.504;2022-11-15T09:40:29;4.00;;;1.20;;
24409;SDS011;12543;53.364;-1.504;2022-11-15T09:43:32;4.57;;;1.23;;
24409;SDS011;12543;53.364;-1.504;2022-11-15T09:46:47;1.42;;;0.95;;
24409;SDS011;12543;53.364;-1.504;2022-11-15T09:49:56;1.23;;;0.90;;
24409;SDS011;12543;53.364;-1.504;2022-11-15T09:52:32;2.25;;;1.20;;
24409;SDS011;12543;53.364;-1.504;2022-11-15T09:55:01;1.75;;;1.00;;
24409;SDS011;12543;53.364;-1.504;2022-11-15T10:00:33;1.98;;;1.00;;
24409;SDS011;12543;53.364;-1.504;2022-11-15T10:03:16;2.88;;;1.00;;
24409;SDS011;12543;53.364;-1.504;2022-11-15T10:05:50;1.50;;;0.90;;
24409;SDS011;12543;53.364;-1.504;2022-11-15T10:11:17;2.22;;;1.00;;
24409;SDS011;12543;53.364;-1.504;2022-11-15T10:14:10;0.77;;;0.73;;
24409;SDS011;12543;53.364;-1.504;2022-11-15T10:20:19;3.13;;;1.30;;
24409;SDS011;12543;53.364;-1.504;2022-11-15T10:22:50;0.70;;;0.60;;
24409;SDS011;12543;53.364;-1.504;2022-11-15T10:25:25;0.77;;;0.73;;
24409;SDS011;12543;53.364;-1.504;2022-11-15T10:27:59;2.03;;;0.97;;
24409;SDS011;12543;53.364;-1.504;2022-11-15T10:30:49;1.60;;;0.93;;
24409;SDS011;12543;53.364;-1.504;2022-11-15T10:33:33;1.55;;;1.00;;
24409;SDS011;12543;53.364;-1.504;2022-11-15T10:44:14;2.25;;;0.90;;
24409;SDS011;12543;53.364;-1.504;2022-11-15T10:47:06;2.85;;;0.98;;
24409;SDS011;12543;53.364;-1.504;2022-11-15T10:49:33;1.48;;;0.90;;
24409;SDS011;12543;53.364;-1.504;2022-11-15T10:52:02;2.28;;;0.80;;
24409;SDS011;12543;53.364;-1.504;2022-11-15T10:54:47;1.50;;;0.70;;
24409;SDS011;12543;53.364;-1.504;2022-11-15T10:57:22;1.40;;;0.70;;
24409;SDS011;12543;53.364;-1.504;2022-11-15T10:59:53;0.73;;;0.65;;
24409;SDS011;12543;53.364;-1.504;2022-11-15T11:02:39;2.40;;;0.60;;
24409;SDS011;12543;53.364;-1.504;2022-11-15T11:10:38;1.35;;;0.70;;
24409;SDS011;12543;53.364;-1.504;2022-11-15T11:13:26;2.17;;;0.80;;
24409;SDS011;12543;53.364;-1.504;2022-11-15T11:18:33;0.82;;;0.65;;
24409;SDS011;12543;53.364;-1.504;2022-11-15T11:21:09;0.80;;;0.77;;
24409;SDS011;12543;53.364;-1.504;2022-11-15T11:26:32;1.52;;;0.82;;
24409;SDS011;12543;53.364;-1.504;2022-11-15T11:40:16;0.80;;;0.80;;
24409;SDS011;12543;53.364;-1.504;2022-11-15T11:43:12;1.50;;;1.27;;
24409;SDS011;12543;53.364;-1.504;2022-11-15T11:46:06;2.13;;;1.00;;
24409;SDS011;12543;53.364;-1.504;2022-11-15T11:48:52;1.20;;;0.80;;
24409;SDS011;12543;53.364;-1.504;2022-11-15T11:51:34;1.30;;;0.80;;
24409;SDS011;12543;53.364;-1.504;2022-11-15T12:00:01;1.02;;;0.95;;
24409;SDS011;12543;53.364;-1.504;2022-11-15T12:02:41;0.93;;;0.73;;
24409;SDS011;12543;53.364;-1.504;2022-11-15T12:05:18;1.52;;;0.90;;
24409;SDS011;12543;53.364;-1.504;2022-11-15T12:07:54;1.98;;;1.20;;
24409;SDS011;12543;53.364;-1.504;2022-11-15T12:10:30;2.35;;;1.30;;
24409;SDS011;12543;53.364;-1.504;2022-11-15T12:13:00;1.77;;;1.30;;
24409;SDS011;12543;53.364;-1.504;2022-11-15T12:15:42;2.45;;;1.27;;
24409;SDS011;12543;53.364;-1.504;2022-11-15T12:18:14;1.15;;;0.93;;
24409;SDS011;12543;53.364;-1.504;2022-11-15T12:20:49;1.05;;;0.65;;
24409;SDS011;12543;53.364;-1.504;2022-11-15T12:23:39;0.85;;;0.70;;
24409;SDS011;12543;53.364;-1.504;2022-11-15T12:29:39;1.27;;;0.90;;
24409;SDS011;12543;53.364;-1.504;2022-11-15T12:32:17;1.23;;;0.70;;
24409;SDS011;12543;53.364;-1.504;2022-11-15T12:35:03;0.80;;;0.63;;
24409;SDS011;12543;53.364;-1.504;2022-11-15T12:37:49;0.80;;;0.52;;
24409;SDS011;12543;53.364;-1.504;2022-11-15T12:40:22;1.13;;;0.47;;
24409;SDS011;12543;53.364;-1.504;2022-11-15T12:43:01;0.55;;;0.55;;
24409;SDS011;12543;53.364;-1.504;2022-11-15T12:45:48;0.65;;;0.65;;
24409;SDS011;12543;53.364;-1.504;2022-11-15T13:04:13;2.38;;;0.95;;
24409;SDS011;12543;53.364;-1.504;2022-11-15T13:12:02;1.25;;;1.15;;
24409;SDS011;12543;53.364;-1.504;2022-11-15T13:17:12;2.05;;;1.60;;
24409;SDS011;12543;53.364;-1.504;2022-11-15T13:19:43;2.35;;;1.00;;
24409;SDS011;12543;53.364;-1.504;2022-11-15T13:22:11;0.90;;;0.90;;
24409;SDS011;12543;53.364;-1.504;2022-11-15T13:24:57;1.10;;;1.00;;
24409;SDS011;12543;53.364;-1.504;2022-11-15T13:27:27;1.20;;;1.10;;
24409;SDS011;12543;53.364;-1.504;2022-11-15T13:29:55;1.00;;;0.90;;
24409;SDS011;12543;53.364;-1.504;2022-11-15T13:32:22;1.10;;;1.00;;
24409;SDS011;12543;53.364;-1.504;2022-11-15T13:34:49;0.70;;;0.70;;
24409;SDS011;12543;53.364;-1.504;2022-11-15T13:39:49;0.73;;;0.73;;
24409;SDS011;12543;53.364;-1.504;2022-11-15T13:42:17;0.80;;;0.80;;
24409;SDS011;12543;53.364;-1.504;2022-11-15T13:44:59;0.52;;;0.52;;
24409;SDS011;12543;53.364;-1.504;2022-11-15T13:47:29;0.75;;;0.75;;
24409;SDS011;12543;53.364;-1.504;2022-11-15T13:49:58;0.80;;;0.60;;
24409;SDS011;12543;53.364;-1.504;2022-11-15T13:52:31;0.50;;;0.50;;
24409;SDS011;12543;53.364;-1.504;2022-11-15T13:55:04;0.40;;;0.40;;
24409;SDS011;12543;53.364;-1.504;2022-11-15T14:00:30;0.68;;;0.40;;
24409;SDS011;12543;53.364;-1.504;2022-11-15T14:03:30;0.55;;;0.50;;
24409;SDS011;12543;53.364;-1.504;2022-11-15T14:08:29;0.40;;;0.40;;
24409;SDS011;12543;53.364;-1.504;2022-11-15T14:11:07;0.40;;;0.40;;
24409;SDS011;12543;53.364;-1.504;2022-11-15T14:13:35;0.95;;;0.60;;
24409;SDS011;12543;53.364;-1.504;2022-11-15T14:17:04;0.50;;;0.50;;
24409;SDS011;12543;53.364;-1.504;2022-11-15T14:19:04;0.47;;;0.40;;
24409;SDS011;12543;53.364;-1.504;2022-11-15T14:21:32;0.50;;;0.40;;
24409;SDS011;12543;53.364;-1.504;2022-11-15T14:24:16;0.30;;;0.30;;
24409;SDS011;12543;53.364;-1.504;2022-11-15T14:26:44;0.68;;;0.40;;
24409;SDS011;12543;53.364;-1.504;2022-11-15T14:29:28;0.60;;;0.47;;
24409;SDS011;12543;53.364;-1.504;2022-11-15T14:32:11;0.50;;;0.50;;
24409;SDS011;12543;53.364;-1.504;2022-11-15T14:34:40;0.43;;;0.38;;
24409;SDS011;12543;53.364;-1.504;2022-11-15T14:37:21;0.38;;;0.38;;
24409;SDS011;12543;53.364;-1.504;2022-11-15T14:39:50;0.73;;;0.50;;
24409;SDS011;12543;53.364;-1.504;2022-11-15T14:42:18;0.37;;;0.33;;
24409;SDS011;12543;53.364;-1.504;2022-11-15T14:44:46;0.50;;;0.50;;
24409;SDS011;12543;53.364;-1.504;2022-11-15T14:47:13;0.55;;;0.50;;
24409;SDS011;12543;53.364;-1.504;2022-11-15T14:49:40;0.75;;;0.60;;
24409;SDS011;12543;53.364;-1.504;2022-11-15T14:52:19;0.43;;;0.43;;
24409;SDS011;12543;53.364;-1.504;2022-11-15T14:54:59;0.50;;;0.50;;
24409;SDS011;12543;53.364;-1.504;2022-11-15T14:57:28;0.57;;;0.57;;
24409;SDS011;12543;53.364;-1.504;2022-11-15T14:59:55;0.60;;;0.60;;
24409;SDS011;12543;53.364;-1.504;2022-11-15T15:02:37;1.05;;;0.70;;
24409;SDS011;12543;53.364;-1.504;2022-11-15T15:05:39;0.60;;;0.60;;
24409;SDS011;12543;53.364;-1.504;2022-11-15T15:07:59;1.15;;;1.08;;
24409;SDS011;12543;53.364;-1.504;2022-11-15T15:10:27;1.60;;;1.50;;
24409;SDS011;12543;53.364;-1.504;2022-11-15T15:15:43;3.08;;;2.88;;
24409;SDS011;12543;53.364;-1.504;2022-11-15T15:18:10;2.90;;;2.70;;
24409;SDS011;12543;53.364;-1.504;2022-11-15T15:20:38;2.10;;;2.00;;
24409;SDS011;12543;53.364;-1.504;2022-11-15T15:23:17;3.10;;;1.65;;
24409;SDS011;12543;53.364;-1.504;2022-11-15T15:25:46;2.25;;;1.40;;
24409;SDS011;12543;53.364;-1.504;2022-11-15T15:28:15;1.48;;;1.17;;
24409;SDS011;12543;53.364;-1.504;2022-11-15T15:30:42;1.02;;;0.90;;
24409;SDS011;12543;53.364;-1.504;2022-11-15T15:33:10;1.90;;;0.80;;
24409;SDS011;12543;53.364;-1.504;2022-11-15T15:35:37;2.55;;;0.90;;
24409;SDS011;12543;53.364;-1.504;2022-11-15T15:38:04;2.65;;;1.00;;
24409;SDS011;12543;53.364;-1.504;2022-11-15T15:40:31;1.40;;;1.02;;
24409;SDS011;12543;53.364;-1.504;2022-11-15T15:45:26;1.25;;;0.90;;
24409;SDS011;12543;53.364;-1.504;2022-11-15T15:47:54;1.38;;;0.93;;
24409;SDS011;12543;53.364;-1.504;2022-11-15T15:52:51;1.95;;;0.60;;
24409;SDS011;12543;53.364;-1.504;2022-11-15T15:55:20;0.95;;;0.60;;
24409;SDS011;12543;53.364;-1.504;2022-11-15T15:57:47;0.73;;;0.65;;
24409;SDS011;12543;53.364;-1.504;2022-11-15T16:00:15;2.45;;;1.05;;
24409;SDS011;12543;53.364;-1.504;2022-11-15T16:02:43;2.97;;;0.90;;
24409;SDS011;12543;53.364;-1.504;2022-11-15T16:05:11;1.45;;;1.05;;
24409;SDS011;12543;53.364;-1.504;2022-11-15T16:07:40;5.00;;;2.28;;
24409;SDS011;12543;53.364;-1.504;2022-11-15T16:10:15;4.68;;;3.35;;
24409;SDS011;12543;53.364;-1.504;2022-11-15T16:12:54;6.00;;;4.60;;
24409;SDS011;12543;53.364;-1.504;2022-11-15T16:17:51;9.68;;;5.45;;
24409;SDS011;12543;53.364;-1.504;2022-11-15T16:20:30;10.43;;;5.97;;
24409;SDS011;12543;53.364;-1.504;2022-11-15T16:22:59;6.53;;;5.68;;
24409;SDS011;12543;53.364;-1.504;2022-11-15T16:25:35;8.27;;;4.93;;
24409;SDS011;12543;53.364;-1.504;2022-11-15T16:28:20;5.78;;;4.30;;
24409;SDS011;12543;53.364;-1.504;2022-11-15T16:31:02;7.13;;;5.10;;
24409;SDS011;12543;53.364;-1.504;2022-11-15T16:33:30;6.88;;;5.20;;
24409;SDS011;12543;53.364;-1.504;2022-11-15T16:35:58;9.13;;;6.47;;
24409;SDS011;12543;53.364;-1.504;2022-11-15T16:38:25;11.15;;;7.95;;
24409;SDS011;12543;53.364;-1.504;2022-11-15T16:40:52;9.70;;;8.68;;
24409;SDS011;12543;53.364;-1.504;2022-11-15T16:43:19;12.68;;;10.02;;
24409;SDS011;12543;53.364;-1.504;2022-11-15T16:45:46;12.07;;;9.82;;
24409;SDS011;12543;53.364;-1.504;2022-11-15T16:48:24;12.50;;;9.90;;
24409;SDS011;12543;53.364;-1.504;2022-11-15T16:50:56;12.88;;;9.07;;
24409;SDS011;12543;53.364;-1.504;2022-11-15T16:53:24;11.75;;;8.45;;
24409;SDS011;12543;53.364;-1.504;2022-11-15T16:58:23;10.07;;;7.95;;
24409;SDS011;12543;53.364;-1.504;2022-11-15T17:00:53;10.20;;;7.93;;
24409;SDS011;12543;53.364;-1.504;2022-11-15T17:03:22;11.65;;;8.40;;
24409;SDS011;12543;53.364;-1.504;2022-11-15T17:05:50;10.63;;;8.23;;
24409;SDS011;12543;53.364;-1.504;2022-11-15T17:08:18;11.43;;;7.70;;
24409;SDS011;12543;53.364;-1.504;2022-11-15T17:10:47;11.20;;;7.85;;
24409;SDS011;12543;53.364;-1.504;2022-11-15T17:13:14;10.77;;;7.10;;
24409;SDS011;12543;53.364;-1.504;2022-11-15T17:15:42;12.52;;;7.20;;
24409;SDS011;12543;53.364;-1.504;2022-11-15T17:18:12;8.10;;;6.28;;
24409;SDS011;12543;53.364;-1.504;2022-11-15T17:20:41;7.80;;;5.63;;
24409;SDS011;12543;53.364;-1.504;2022-11-15T17:23:11;11.10;;;6.70;;
24409;SDS011;12543;53.364;-1.504;2022-11-15T17:25:40;11.07;;;7.60;;
24409;SDS011;12543;53.364;-1.504;2022-11-15T17:28:07;9.80;;;6.75;;
24409;SDS011;12543;53.364;-1.504;2022-11-15T17:30:35;10.25;;;6.45;;
24409;SDS011;12543;53.364;-1.504;2022-11-15T17:33:02;8.65;;;5.68;;
24409;SDS011;12543;53.364;-1.504;2022-11-15T17:35:29;7.30;;;5.97;;
24409;SDS011;12543;53.364;-1.504;2022-11-15T17:37:56;12.15;;;6.38;;
24409;SDS011;12543;53.364;-1.504;2022-11-15T17:40:23;8.75;;;6.03;;
24409;SDS011;12543;53.364;-1.504;2022-11-15T17:42:50;11.55;;;6.40;;
24409;SDS011;12543;53.364;-1.504;2022-11-15T17:45:17;9.50;;;6.20;;
24409;SDS011;12543;53.364;-1.504;2022-11-15T17:47:44;7.10;;;4.70;;
24409;SDS011;12543;53.364;-1.504;2022-11-15T17:50:11;4.38;;;3.90;;
24409;SDS011;12543;53.364;-1.504;2022-11-15T17:52:38;7.70;;;3.40;;
24409;SDS011;12543;53.364;-1.504;2022-11-15T17:55:05;7.88;;;3.78;;
24409;SDS011;12543;53.364;-1.504;2022-11-15T17:57:32;5.65;;;4.20;;
24409;SDS011;12543;53.364;-1.504;2022-11-15T17:59:59;6.45;;;4.15;;
24409;SDS011;12543;53.364;-1.504;2022-11-15T18:02:29;11.93;;;4.00;;
24409;SDS011;12543;53.364;-1.504;2022-11-15T18:04:56;5.05;;;3.05;;